Time;durP1;ratioP1;P1;durP2;ratioP2;P2;SDS_P1;SDS_P2;PMS_P1;PMS_P2;Temp;Humidity;BMP_temperature;BMP_pressure;BME280_temperature;BME280_humidity;BME280_pressure;Samples;Min_cycle;Max_cycle;Signal;HPM_P1;HPM_P2
2022/11/09 00:01:13;;;;;;;;;;;;;;;20.57;49.05;100301.66;5144882;27;19951;-34
2022/11/09 00:03:39;;;;;;;;;;;;;;;20.57;49.08;100293.34;5142310;27;20316;-34
2022/11/09 00:06:05;;;;;;;;;;;;;;;20.57;49.08;100293.34;5147910;27;19923;-34
2022/11/09 00:08:30;;;;;;;;;;;;;;;20.57;49.21;100293.34;5140210;27;19930;-34
2022/11/09 00:11:03;;;;;;;;;;;;;;;20.58;49.02;100296.94;5140104;27;19931;-34
2022/11/09 00:13:29;;;;;;;;;;;;;;;20.57;48.95;100292.53;5145337;27;19931;-34
2022/11/09 00:15:58;;;;;;;;;;;;;;;20.57;49.24;100296.13;5145504;27;19923;-34
2022/11/09 00:18:24;;;;;;;;;;;;;;;20.57;49.12;100287.00;5126508;27;20018;-34
2022/11/09 00:20:49;;;;;;;;;;;;;;;20.57;49.27;100279.50;5146528;27;20387;-34
2022/11/09 00:23:15;;;;;;;;;;;;;;;20.56;49.01;100286.19;5142469;27;19953;-34
2022/11/09 00:25:41;;;;;;;;;;;;;;;20.57;49.02;100282.28;5144672;27;20402;-33
2022/11/09 00:28:06;;;;;;;;;;;;;;;20.57;49.16;100281.47;5141512;27;19926;-34
2022/11/09 00:30:32;;;;;;;;;;;;;;;20.57;49.20;100279.50;5143774;27;19927;-33
2022/11/09 00:32:57;;;;;;;;;;;;;;;20.57;48.97;100273.16;5139145;27;20367;-33
2022/11/09 00:35:23;;;;;;;;;;;;;;;20.56;49.13;100272.34;5144212;27;19931;-34
2022/11/09 00:37:48;;;;;;;;;;;;;;;20.57;49.12;100275.94;5138445;27;19931;-33
2022/11/09 00:40:14;;;;;;;;;;;;;;;20.57;49.01;100273.97;5139383;27;20313;-33
2022/11/09 00:42:40;;;;;;;;;;;;;;;20.56;48.86;100263.22;5143892;27;20335;-34
2022/11/09 00:45:05;;;;;;;;;;;;;;;20.56;49.25;100266.00;5144541;27;19931;-34
2022/11/09 00:47:31;;;;;;;;;;;;;;;20.56;49.10;100263.22;5143085;27;19945;-33
2022/11/09 00:49:56;;;;;;;;;;;;;;;20.56;49.14;100266.00;5141883;27;19949;-34
2022/11/09 00:52:22;;;;;;;;;;;;;;;20.54;49.03;100264.34;5142480;27;19924;-34
2022/11/09 00:54:48;;;;;;;;;;;;;;;20.56;49.22;100272.34;5141175;27;19923;-34
2022/11/09 00:57:13;;;;;;;;;;;;;;;20.56;49.17;100272.34;5142629;27;19923;-33
2022/11/09 00:59:39;;;;;;;;;;;;;;;20.56;49.18;100274.31;5143674;27;19923;-34
2022/11/09 01:02:04;;;;;;;;;;;;;;;20.55;48.95;100276.22;5142542;27;19923;-34
2022/11/09 01:04:30;;;;;;;;;;;;;;;20.56;49.11;100274.31;5148497;27;19931;-34
2022/11/09 01:06:55;;;;;;;;;;;;;;;20.55;49.27;100279.00;5149634;27;20403;-34
2022/11/09 01:09:21;;;;;;;;;;;;;;;20.54;49.07;100275.41;5139805;27;19931;-34
2022/11/09 01:11:46;;;;;;;;;;;;;;;20.55;49.28;100284.53;5140471;27;19923;-34
2022/11/09 01:14:12;;;;;;;;;;;;;;;20.54;49.15;100280.13;5138843;27;20000;-34
2022/11/09 01:16:38;;;;;;;;;;;;;;;20.54;49.08;100289.22;5138315;27;20007;-33
2022/11/09 01:19:03;;;;;;;;;;;;;;;20.54;49.22;100291.19;5143897;27;19923;-34
2022/11/09 01:21:29;;;;;;;;;;;;;;;20.54;49.12;100299.47;5140973;27;20332;-34
2022/11/09 01:23:55;;;;;;;;;;;;;;;20.54;49.06;100300.28;5128322;27;19931;-34
2022/11/09 01:26:20;;;;;;;;;;;;;;;20.54;49.25;100299.47;5122130;27;19995;-34
2022/11/09 01:28:46;;;;;;;;;;;;;;;20.53;49.22;100297.84;5140813;27;19929;-34
2022/11/09 01:31:13;;;;;;;;;;;;;;;20.52;49.22;100297.03;5126637;27;21497;-34
2022/11/09 01:33:38;;;;;;;;;;;;;;;20.53;49.17;100295.09;5147226;27;20279;-34
2022/11/09 01:36:05;;;;;;;;;;;;;;;20.53;49.23;100304.19;5146132;27;19973;-34
2022/11/09 01:38:31;;;;;;;;;;;;;;;20.53;49.17;100295.09;5125496;27;20034;-33
2022/11/09 01:40:56;;;;;;;;;;;;;;;20.52;49.12;100305.31;5143556;27;20389;-34
2022/11/09 01:43:23;;;;;;;;;;;;;;;20.54;49.15;100311.38;5142558;27;19934;-34
2022/11/09 01:45:51;;;;;;;;;;;;;;;20.52;49.30;100302.56;5119800;27;20018;-34
2022/11/09 01:48:18;;;;;;;;;;;;;;;20.52;49.34;100305.31;5140654;27;19931;-34
2022/11/09 01:50:45;;;;;;;;;;;;;;;20.52;49.24;100308.09;5119962;27;19958;-34
2022/11/09 01:53:13;;;;;;;;;;;;;;;20.51;49.08;100300.94;5142694;27;19982;-35
2022/11/09 01:55:39;;;;;;;;;;;;;;;20.51;49.14;100303.69;5141404;27;19976;-34
2022/11/09 01:58:05;;;;;;;;;;;;;;;20.52;49.32;100299.78;5139906;27;19923;-33
2022/11/09 02:00:31;;;;;;;;;;;;;;;20.52;49.12;100291.50;5144526;27;20403;-34
2022/11/09 02:02:59;;;;;;;;;;;;;;;20.53;49.12;100300.63;5145903;27;19931;-34
2022/11/09 02:05:25;;;;;;;;;;;;;;;20.52;49.21;100293.44;5141567;27;20160;-33
2022/11/09 02:07:51;;;;;;;;;;;;;;;20.52;49.12;100296.22;5141895;27;19985;-34
2022/11/09 02:10:21;;;;;;;;;;;;;;;20.53;49.31;100292.31;5144881;27;20328;-34
2022/11/09 02:12:46;;;;;;;;;;;;;;;20.51;49.34;100292.63;5141062;27;19967;-34
2022/11/09 02:15:12;;;;;;;;;;;;;;;20.51;49.07;100292.63;5138248;27;19939;-34
2022/11/09 02:17:38;;;;;;;;;;;;;;;20.52;49.28;100308.09;5137621;27;19953;-34
2022/11/09 02:20:11;;;;;;;;;;;;;;;20.51;49.25;100298.16;5140274;27;19977;-33
2022/11/09 02:22:37;;;;;;;;;;;;;;;20.51;49.16;100302.88;5120102;27;19966;-34
2022/11/09 02:25:03;;;;;;;;;;;;;;;20.52;49.09;100302.56;5141312;27;19930;-35
2022/11/09 02:27:29;;;;;;;;;;;;;;;20.51;49.07;100297.34;5138301;27;19931;-34
2022/11/09 02:29:54;;;;;;;;;;;;;;;20.51;49.25;100309.22;5142540;27;20377;-34
2022/11/09 02:32:21;;;;;;;;;;;;;;;20.51;49.18;100300.94;5139580;27;19931;-34
2022/11/09 02:34:46;;;;;;;;;;;;;;;20.50;49.31;100290.16;5141250;27;19976;-33
2022/11/09 02:37:12;;;;;;;;;;;;;;;20.51;49.30;100300.13;5141324;27;19927;-34
2022/11/09 02:39:37;;;;;;;;;;;;;;;20.51;49.18;100309.22;5140446;27;19927;-34
2022/11/09 02:42:04;;;;;;;;;;;;;;;20.51;49.30;100302.88;5140720;27;19930;-34
2022/11/09 02:44:36;;;;;;;;;;;;;;;20.51;49.35;100297.34;5126390;27;19942;-33
2022/11/09 02:47:02;;;;;;;;;;;;;;;20.50;49.31;100302.03;5138314;27;19931;-34
2022/11/09 02:49:27;;;;;;;;;;;;;;;20.50;49.22;100303.97;5137283;27;20375;-33
2022/11/09 02:51:53;;;;;;;;;;;;;;;20.50;49.08;100301.22;5143187;27;19934;-34
2022/11/09 02:54:18;;;;;;;;;;;;;;;20.50;49.33;100298.44;5138954;27;19930;-33
2022/11/09 02:56:44;;;;;;;;;;;;;;;20.51;49.31;100305.66;5144049;27;19935;-34
2022/11/09 02:59:09;;;;;;;;;;;;;;;20.50;49.22;100303.97;5146778;27;19930;-34
2022/11/09 03:01:35;;;;;;;;;;;;;;;20.50;49.22;100304.78;5142082;27;19968;-34
2022/11/09 03:04:01;;;;;;;;;;;;;;;20.50;49.24;100307.56;5145889;27;20260;-34
2022/11/09 03:06:33;;;;;;;;;;;;;;;20.50;49.04;100299.25;5142289;27;19938;-34
2022/11/09 03:09:00;;;;;;;;;;;;;;;20.51;49.32;100311.19;5143172;27;19973;-34
2022/11/09 03:11:25;;;;;;;;;;;;;;;20.50;49.30;100306.75;5127865;27;19955;-34
2022/11/09 03:13:51;;;;;;;;;;;;;;;20.50;49.19;100312.28;5139233;27;20002;-33
2022/11/09 03:16:16;;;;;;;;;;;;;;;20.49;49.32;100311.47;5139415;27;20390;-34
2022/11/09 03:18:42;;;;;;;;;;;;;;;20.49;49.26;100317.00;5143587;27;19934;-33
2022/11/09 03:21:07;;;;;;;;;;;;;;;20.50;49.32;100317.81;5139760;27;20396;-34
2022/11/09 03:23:33;;;;;;;;;;;;;;;20.50;49.31;100309.50;5141899;27;19924;-34
2022/11/09 03:25:59;;;;;;;;;;;;;;;20.50;49.40;100313.09;5121921;27;19946;-33
2022/11/09 03:28:24;;;;;;;;;;;;;;;20.49;49.23;100311.47;5137862;27;19942;-34
2022/11/09 03:30:50;;;;;;;;;;;;;;;20.49;49.18;100303.16;5139982;27;19923;-33
2022/11/09 03:33:15;;;;;;;;;;;;;;;20.49;49.22;100308.69;5138634;27;20318;-33
2022/11/09 03:35:42;;;;;;;;;;;;;;;20.49;49.42;100303.16;5137242;27;19924;-33
2022/11/09 03:38:08;;;;;;;;;;;;;;;20.49;49.45;100310.66;5138714;27;20018;-33
2022/11/09 03:40:34;;;;;;;;;;;;;;;20.48;49.32;100320.91;5140335;27;19924;-34
2022/11/09 03:42:59;;;;;;;;;;;;;;;20.49;49.17;100322.53;5124037;27;19923;-34
2022/11/09 03:45:26;;;;;;;;;;;;;;;20.49;49.35;100324.47;5132889;27;19941;-34
2022/11/09 03:47:55;;;;;;;;;;;;;;;20.49;49.40;100319.75;5136937;27;19968;-34
2022/11/09 03:50:21;;;;;;;;;;;;;;;20.49;49.11;100322.53;5120565;27;19969;-34
2022/11/09 03:52:47;;;;;;;;;;;;;;;20.49;49.31;100330.00;5142044;27;19962;-34
2022/11/09 03:55:12;;;;;;;;;;;;;;;20.49;49.37;100332.78;5119901;27;20119;-33
2022/11/09 03:57:38;;;;;;;;;;;;;;;20.48;49.27;100326.44;5141679;27;19924;-33
2022/11/09 04:00:04;;;;;;;;;;;;;;;20.48;49.26;100331.97;5142373;27;20274;-34
2022/11/09 04:02:30;;;;;;;;;;;;;;;20.47;49.26;100333.06;5123950;27;20018;-34
2022/11/09 04:04:55;;;;;;;;;;;;;;;20.49;49.41;100346.59;5140593;27;19923;-34
2022/11/09 04:07:21;;;;;;;;;;;;;;;20.48;49.27;100339.44;5140519;27;19931;-33
2022/11/09 04:09:47;;;;;;;;;;;;;;;20.47;49.29;100333.06;5143236;27;20363;-34
2022/11/09 04:12:12;;;;;;;;;;;;;;;20.48;49.34;100331.13;5138928;27;19934;-34
2022/11/09 04:14:38;;;;;;;;;;;;;;;20.48;49.49;100334.72;5136247;27;19961;-33
2022/11/09 04:17:03;;;;;;;;;;;;;;;20.47;49.45;100333.06;5137158;27;20299;-34
2022/11/09 04:19:29;;;;;;;;;;;;;;;20.48;49.33;100336.66;5142836;27;19996;-33
2022/11/09 04:21:54;;;;;;;;;;;;;;;20.47;49.46;100341.34;5144426;27;20276;-34
2022/11/09 04:24:20;;;;;;;;;;;;;;;20.47;49.34;100344.13;5140438;27;19946;-35
2022/11/09 04:26:46;;;;;;;;;;;;;;;20.47;49.46;100338.59;5139227;27;19938;-34
2022/11/09 04:29:11;;;;;;;;;;;;;;;20.47;49.33;100346.06;5142947;27;19923;-34
2022/11/09 04:31:37;;;;;;;;;;;;;;;20.48;49.38;100351.31;5144304;27;19928;-34
2022/11/09 04:34:02;;;;;;;;;;;;;;;20.47;49.38;100349.66;5147966;27;19931;-34
2022/11/09 04:36:28;;;;;;;;;;;;;;;20.46;49.38;100353.53;5141571;27;19938;-33
2022/11/09 04:38:54;;;;;;;;;;;;;;;20.47;49.45;100357.13;5140360;27;20340;-34
2022/11/09 04:41:19;;;;;;;;;;;;;;;20.47;49.30;100359.91;5141282;27;19934;-34
2022/11/09 04:43:45;;;;;;;;;;;;;;;20.47;49.41;100359.91;5145796;27;19934;-33
2022/11/09 04:46:10;;;;;;;;;;;;;;;20.47;49.56;100363.47;5143935;27;19923;-33
2022/11/09 04:48:36;;;;;;;;;;;;;;;20.47;49.25;100374.53;5138514;27;19930;-34
2022/11/09 04:51:02;;;;;;;;;;;;;;;20.46;49.43;100367.34;5145892;27;19975;-34
2022/11/09 04:53:28;;;;;;;;;;;;;;;20.47;49.49;100376.50;5141979;27;20407;-33
2022/11/09 04:55:53;;;;;;;;;;;;;;;20.47;49.44;100377.31;5128386;27;19930;-34
2022/11/09 04:58:19;;;;;;;;;;;;;;;20.46;49.28;100369.28;5142194;27;19923;-33
2022/11/09 05:00:50;;;;;;;;;;;;;;;20.46;49.46;100372.88;5136096;27;19931;-34
2022/11/09 05:03:15;;;;;;;;;;;;;;;20.47;49.28;100376.50;5142215;27;19923;-34
2022/11/09 05:05:41;;;;;;;;;;;;;;;20.46;49.29;100378.41;5146565;27;19930;-34
2022/11/09 05:08:13;;;;;;;;;;;;;;;20.47;49.32;100376.50;5145242;27;20015;-34
2022/11/09 05:10:39;;;;;;;;;;;;;;;20.46;49.47;100378.41;5139415;27;19946;-34
2022/11/09 05:13:05;;;;;;;;;;;;;;;20.47;49.58;100382.84;5146894;27;19924;-34
2022/11/09 05:15:31;;;;;;;;;;;;;;;20.46;49.37;100381.19;5138590;27;20451;-34
2022/11/09 05:17:57;;;;;;;;;;;;;;;20.47;49.52;100384.78;5124328;27;19923;-34
2022/11/09 05:20:22;;;;;;;;;;;;;;;20.46;49.33;100378.41;5123636;27;20390;-34
2022/11/09 05:25:33;;;;;;;;;;;;;;;20.46;49.33;100381.19;5114086;27;20010;-33
2022/11/09 05:27:59;;;;;;;;;;;;;;;20.46;49.34;100377.59;5142512;27;20332;-34
2022/11/09 05:30:25;;;;;;;;;;;;;;;20.46;49.28;100378.41;5120815;27;19923;-34
2022/11/09 05:32:50;;;;;;;;;;;;;;;20.46;49.55;100386.72;5140680;27;19938;-34
2022/11/09 05:35:16;;;;;;;;;;;;;;;20.46;49.30;100383.94;5139878;27;19923;-33
2022/11/09 05:37:41;;;;;;;;;;;;;;;20.46;49.35;100377.59;5143099;27;19923;-33
2022/11/09 05:40:08;;;;;;;;;;;;;;;20.46;49.55;100372.06;5143672;27;19923;-34
2022/11/09 05:42:33;;;;;;;;;;;;;;;20.46;49.46;100364.59;5140607;27;20056;-34
2022/11/09 05:45:00;;;;;;;;;;;;;;;20.46;49.46;100372.88;5147126;27;19926;-34
2022/11/09 05:47:45;;;;;;;;;;;;;;;20.46;49.53;100356.28;5129027;27;19927;-34
2022/11/09 05:50:12;;;;;;;;;;;;;;;20.46;49.37;100349.94;5142240;27;19923;-34
2022/11/09 05:52:37;;;;;;;;;;;;;;;20.46;49.37;100355.47;5121796;27;20370;-33
2022/11/09 05:55:03;;;;;;;;;;;;;;;20.47;49.45;100354.38;5139909;27;19927;-34
2022/11/09 05:57:29;;;;;;;;;;;;;;;20.47;49.32;100357.13;5140810;27;19931;-33
2022/11/09 05:59:54;;;;;;;;;;;;;;;20.47;49.55;100359.91;5136704;27;19923;-34
2022/11/09 06:02:20;;;;;;;;;;;;;;;20.46;49.36;100361.00;5120080;27;19935;-34
2022/11/09 06:04:45;;;;;;;;;;;;;;;20.46;49.51;100353.53;5119590;27;19931;-34
2022/11/09 06:07:11;;;;;;;;;;;;;;;20.46;49.46;100356.28;5142019;27;19931;-34
2022/11/09 06:09:36;;;;;;;;;;;;;;;20.47;49.34;100357.13;5142882;27;19931;-34
2022/11/09 06:12:02;;;;;;;;;;;;;;;20.46;49.39;100366.53;5136927;27;20669;-34
2022/11/09 06:14:28;;;;;;;;;;;;;;;20.47;49.37;100362.66;5142231;27;21597;-33
2022/11/09 06:16:53;;;;;;;;;;;;;;;20.47;49.49;100362.66;5142214;27;19975;-34
2022/11/09 06:19:19;;;;;;;;;;;;;;;20.47;49.60;100359.91;5138348;27;19935;-33
2022/11/09 06:21:44;;;;;;;;;;;;;;;20.47;49.64;100366.25;5140008;27;19928;-34
2022/11/09 06:24:10;;;;;;;;;;;;;;;20.47;49.46;100370.97;5139222;27;19923;-34
2022/11/09 06:26:35;;;;;;;;;;;;;;;20.46;49.47;100361.00;5138787;27;20402;-33
2022/11/09 06:29:01;;;;;;;;;;;;;;;20.46;49.53;100372.88;5142624;27;19931;-34
2022/11/09 06:31:27;;;;;;;;;;;;;;;20.47;49.30;100377.31;5120318;27;19974;-34
2022/11/09 06:33:52;;;;;;;;;;;;;;;20.47;49.71;100377.31;5145500;27;19931;-33
2022/11/09 06:36:18;;;;;;;;;;;;;;;20.45;49.61;100375.97;5118240;27;19927;-34
2022/11/09 06:38:46;;;;;;;;;;;;;;;20.45;49.60;100379.53;5120454;27;20018;-34
2022/11/09 06:41:12;;;;;;;;;;;;;;;20.46;49.47;100381.19;5138697;27;19967;-34
2022/11/09 06:43:37;;;;;;;;;;;;;;;20.45;49.40;100393.38;5139387;27;19931;-33
2022/11/09 06:46:03;;;;;;;;;;;;;;;20.45;49.49;100385.06;5139924;27;20290;-34
2022/11/09 06:48:29;;;;;;;;;;;;;;;20.45;49.39;100393.38;5137936;27;19923;-34
2022/11/09 06:50:58;;;;;;;;;;;;;;;20.46;49.43;100399.72;5140426;27;19924;-34
2022/11/09 06:53:23;;;;;;;;;;;;;;;20.46;49.61;100385.91;5143366;27;19978;-34
2022/11/09 06:55:49;;;;;;;;;;;;;;;20.47;49.45;100395.84;5139766;27;19931;-34
2022/11/09 06:58:16;;;;;;;;;;;;;;;20.45;49.44;100401.66;5134390;27;19934;-34
2022/11/09 07:00:42;;;;;;;;;;;;;;;20.46;49.47;100410.78;5120299;27;20393;-34
2022/11/09 07:03:09;;;;;;;;;;;;;;;20.46;49.63;100417.13;5142692;27;19974;-34
2022/11/09 07:05:36;;;;;;;;;;;;;;;20.46;49.48;100414.38;5135790;27;20389;-34
2022/11/09 07:08:02;;;;;;;;;;;;;;;20.45;49.61;100425.75;5116771;27;20026;-33
2022/11/09 07:10:27;;;;;;;;;;;;;;;20.45;49.63;100426.56;5134743;27;20290;-33
2022/11/09 07:12:55;;;;;;;;;;;;;;;20.44;49.56;100422.16;5135883;27;21621;-34
2022/11/09 07:15:21;;;;;;;;;;;;;;;20.46;49.73;100430.97;5135276;27;20336;-34
2022/11/09 07:17:46;;;;;;;;;;;;;;;20.44;49.62;100444.28;5135041;27;19927;-33
2022/11/09 07:20:13;;;;;;;;;;;;;;;20.45;49.62;100443.16;5137321;27;19934;-34
2022/11/09 07:22:39;;;;;;;;;;;;;;;20.44;49.54;100441.53;5137360;27;20015;-34
2022/11/09 07:25:06;;;;;;;;;;;;;;;20.45;49.57;100448.69;5129446;27;20135;-33
2022/11/09 07:27:31;;;;;;;;;;;;;;;20.44;49.61;100443.47;5112378;27;20026;-34
2022/11/09 07:29:57;;;;;;;;;;;;;;;20.46;49.58;100449.50;5110627;27;19951;-33
2022/11/09 07:32:22;;;;;;;;;;;;;;;20.44;49.66;100444.28;5134380;27;20379;-33
2022/11/09 07:35:08;;;;;;;;;;;;;;;20.45;49.62;100450.63;5117676;27;19932;-34
2022/11/09 07:37:34;;;;;;;;;;;;;;;20.44;49.59;100451.78;5133228;27;19934;-33
2022/11/09 07:39:59;;;;;;;;;;;;;;;20.44;49.61;100449.81;5136723;27;20751;-33
2022/11/09 07:42:25;;;;;;;;;;;;;;;20.45;49.54;100448.69;5132266;27;20379;-33
2022/11/09 07:44:50;;;;;;;;;;;;;;;20.45;49.63;100456.16;5136422;27;19934;-34
2022/11/09 07:47:17;;;;;;;;;;;;;;;20.44;49.66;100458.13;5133299;27;20339;-34
2022/11/09 07:49:43;;;;;;;;;;;;;;;20.45;49.55;100457.00;5136257;27;20306;-34
2022/11/09 07:58:44;;;;;;;;;;;;;;;20.46;49.62;100466.09;5133244;27;20039;-34
2022/11/09 08:01:09;;;;;;;;;;;;;;;20.46;49.65;100466.09;5124599;27;20386;-33
2022/11/09 08:03:35;;;;;;;;;;;;;;;20.46;49.51;100458.63;5100984;27;19993;-34
2022/11/09 08:06:01;;;;;;;;;;;;;;;20.47;49.78;100467.78;5107440;27;20013;-34
2022/11/09 08:08:26;;;;;;;;;;;;;;;20.47;49.47;100465.81;5116323;27;19923;-33
2022/11/09 08:10:52;;;;;;;;;;;;;;;20.47;49.72;100471.34;5134009;27;20405;-33
2022/11/09 08:13:18;;;;;;;;;;;;;;;20.48;49.87;100474.97;5132348;27;19932;-34
2022/11/09 08:15:44;;;;;;;;;;;;;;;20.48;49.46;100469.44;5113196;27;20014;-34
2022/11/09 08:18:12;;;;;;;;;;;;;;;20.48;49.52;100474.97;5115634;27;19930;-33
2022/11/09 08:20:37;;;;;;;;;;;;;;;20.49;49.51;100476.59;5132502;27;20553;-33
2022/11/09 08:23:03;;;;;;;;;;;;;;;20.32;48.49;100479.88;5134415;27;19931;-35
2022/11/09 08:25:33;;;;;;;;;;;;;;;20.29;49.08;100481.31;5135343;27;19927;-34
2022/11/09 08:27:59;;;;;;;;;;;;;;;20.41;48.79;100486.38;5119092;27;20026;-34
2022/11/09 08:30:24;;;;;;;;;;;;;;;20.47;48.54;100478.84;5114627;27;19939;-34
2022/11/09 08:32:50;;;;;;;;;;;;;;;20.48;49.20;100483.28;5135089;27;19954;-33
2022/11/09 08:35:17;;;;;;;;;;;;;;;20.49;49.19;100493.22;5137765;27;19942;-34
2022/11/09 08:37:45;;;;;;;;;;;;;;;20.50;49.27;100486.53;5134868;27;20209;-34
2022/11/09 08:40:11;;;;;;;;;;;;;;;20.50;49.09;100481.00;5137884;27;20033;-38
2022/11/09 08:42:36;;;;;;;;;;;;;;;20.46;49.29;100480.75;5140992;27;20030;-34
2022/11/09 08:45:02;;;;;;;;;;;;;;;20.50;49.27;100484.59;5134348;27;19935;-34
2022/11/09 08:47:28;;;;;;;;;;;;;;;20.51;48.91;100480.72;5121709;27;19931;-34
2022/11/09 08:49:53;;;;;;;;;;;;;;;20.52;48.90;100476.00;5122166;27;20374;-34
2022/11/09 08:52:19;;;;;;;;;;;;;;;20.53;49.06;100485.94;5114820;27;19924;-34
2022/11/09 08:54:44;;;;;;;;;;;;;;;20.53;49.03;100484.00;5134817;27;19927;-34
2022/11/09 08:57:10;;;;;;;;;;;;;;;20.56;48.89;100492.84;5132019;27;19945;-33
2022/11/09 08:59:36;;;;;;;;;;;;;;;20.56;49.22;100490.06;5134211;27;20009;-34
2022/11/09 09:02:01;;;;;;;;;;;;;;;20.54;49.24;100485.63;5132806;27;19941;-34
2022/11/09 09:04:28;;;;;;;;;;;;;;;20.56;49.34;100485.34;5133281;27;19955;-35
2022/11/09 09:06:54;;;;;;;;;;;;;;;20.57;49.00;100483.41;5117273;27;19981;-35
2022/11/09 09:09:19;;;;;;;;;;;;;;;20.57;49.06;100488.94;5137399;27;20167;-34
2022/11/09 09:11:45;;;;;;;;;;;;;;;20.59;49.26;100487.50;5133984;27;21454;-34
2022/11/09 09:14:10;;;;;;;;;;;;;;;20.60;49.36;100489.16;5135959;27;19939;-34
2022/11/09 09:16:36;;;;;;;;;;;;;;;20.59;49.23;100494.97;5132389;27;20268;-34
2022/11/09 09:19:02;;;;;;;;;;;;;;;20.60;49.26;100491.13;5117560;27;20032;-34
2022/11/09 09:21:27;;;;;;;;;;;;;;;20.59;49.32;100501.34;5133693;27;21136;-34
2022/11/09 09:23:53;;;;;;;;;;;;;;;20.61;49.23;100506.59;5136798;27;20282;-34
2022/11/09 09:26:19;;;;;;;;;;;;;;;20.63;49.16;100496.84;5115240;27;20009;-34
2022/11/09 09:28:44;;;;;;;;;;;;;;;20.63;49.24;100502.38;5132274;27;19923;-34
2022/11/09 09:31:10;;;;;;;;;;;;;;;20.62;49.27;100503.50;5131486;27;20444;-34
2022/11/09 09:33:43;;;;;;;;;;;;;;;20.60;48.86;100503.00;5114243;27;20410;-36
2022/11/09 09:36:11;;;;;;;;;;;;;;;20.53;47.68;100497.84;5124537;27;19934;-37
2022/11/09 09:38:36;;;;;;;;;;;;;;;20.54;48.46;100509.72;5129761;27;19955;-37
2022/11/09 09:41:03;;;;;;;;;;;;;;;20.60;48.26;100508.53;5122042;27;19938;-36
2022/11/09 09:43:30;;;;;;;;;;;;;;;20.63;48.75;100507.91;5134007;27;20026;-37
2022/11/09 09:45:55;;;;;;;;;;;;;;;20.64;49.08;100523.41;5140177;27;20006;-36
2022/11/09 09:48:37;;;;;;;;;;;;;;;20.65;48.92;100524.22;5139537;27;19980;-37
2022/11/09 09:51:09;;;;;;;;;;;;;;;20.64;49.13;100526.19;5136493;27;19970;-37
2022/11/09 09:53:36;;;;;;;;;;;;;;;20.65;49.11;100529.78;5138604;27;20019;-36
2022/11/09 09:56:05;;;;;;;;;;;;;;;20.65;48.89;100533.34;5138234;27;20311;-36
2022/11/09 09:58:31;;;;;;;;;;;;;;;20.65;49.04;100543.59;5137670;27;19962;-38
2022/11/09 10:00:59;;;;;;;;;;;;;;;20.65;48.88;100554.66;5122352;27;20722;-37
2022/11/09 10:03:24;;;;;;;;;;;;;;;20.65;48.95;100554.66;5128053;27;20060;-36
2022/11/09 10:05:54;;;;;;;;;;;;;;;20.66;48.74;100562.66;5137565;27;19931;-37
2022/11/09 10:08:39;;;;;;;;;;;;;;;20.57;48.69;100549.81;5138088;27;19993;-37
2022/11/09 10:13:48;;;;;;;;;;;;;;;20.68;49.00;100559.59;5170362;27;19933;-37
2022/11/09 10:16:20;;;;;;;;;;;;;;;20.68;49.07;100562.34;5147142;27;19984;-36
2022/11/09 10:19:05;;;;;;;;;;;;;;;20.67;48.52;100558.75;5130089;27;19972;-37
2022/11/09 10:21:35;;;;;;;;;;;;;;;20.68;48.22;100563.19;5139734;27;20025;-37
2022/11/09 10:24:21;;;;;;;;;;;;;;;20.68;48.73;100567.88;5150957;27;19958;-37
2022/11/09 10:26:50;;;;;;;;;;;;;;;20.71;48.99;100561.75;5137218;27;20309;-38
2022/11/09 10:29:20;;;;;;;;;;;;;;;20.70;49.08;100562.88;5133585;27;20013;-37
2022/11/09 10:31:46;;;;;;;;;;;;;;;20.69;48.90;100567.59;5155214;27;19967;-37
2022/11/09 10:34:16;;;;;;;;;;;;;;;20.71;48.58;100565.34;5124142;27;19946;-38
2022/11/09 10:36:43;;;;;;;;;;;;;;;20.72;48.28;100575.28;5146054;27;19965;-38
2022/11/09 10:39:09;;;;;;;;;;;;;;;20.74;48.38;100575.00;5143814;27;19962;-38
2022/11/09 10:44:13;;;;;;;;;;;;;;;20.74;48.18;100581.34;5154227;27;19937;-37
2022/11/09 10:47:03;;;;;;;;;;;;;;;20.77;47.94;100579.94;5144297;27;20112;-36
2022/11/09 10:49:28;;;;;;;;;;;;;;;20.78;48.79;100579.63;5133675;27;19942;-37
2022/11/09 10:51:54;;;;;;;;;;;;;;;20.78;48.50;100576.88;5149608;27;19931;-38
2022/11/09 10:54:21;;;;;;;;;;;;;;;20.76;48.87;100572.75;5146027;27;19939;-36
2022/11/09 10:56:48;;;;;;;;;;;;;;;20.76;48.38;100575.50;5113921;27;20403;-36
2022/11/09 10:59:42;;;;;;;;;;;;;;;20.76;48.12;100581.03;5133192;27;20279;-37
2022/11/09 11:07:33;;;;;;;;;;;;;;;20.71;47.78;100568.13;5174049;27;19929;-35
2022/11/09 11:10:16;;;;;;;;;;;;;;;20.67;48.09;100572.59;5161915;27;20022;-36
2022/11/09 11:12:42;;;;;;;;;;;;;;;20.74;48.14;100575.00;5162494;27;19923;-36
2022/11/09 11:15:24;;;;;;;;;;;;;;;20.75;48.13;100579.41;5159233;27;19923;-36
2022/11/09 11:17:50;;;;;;;;;;;;;;;20.75;48.15;100582.19;5139779;27;19957;-36
2022/11/09 11:20:22;;;;;;;;;;;;;;;20.78;48.10;100571.34;5159037;27;20299;-36
2022/11/09 11:22:48;;;;;;;;;;;;;;;20.78;48.27;100579.63;5156303;27;20023;-36
2022/11/09 11:25:18;;;;;;;;;;;;;;;20.77;48.57;100578.00;5149314;27;20269;-36
2022/11/09 11:27:47;;;;;;;;;;;;;;;20.77;48.25;100580.75;5136875;27;20439;-36
2022/11/09 11:30:14;;;;;;;;;;;;;;;20.78;48.35;100582.41;5134403;27;19958;-36
2022/11/09 11:32:40;;;;;;;;;;;;;;;20.78;48.07;100578.81;5163227;27;20052;-36
2022/11/09 11:35:15;;;;;;;;;;;;;;;20.78;48.34;100576.06;5144489;27;19983;-36
2022/11/09 11:37:45;;;;;;;;;;;;;;;20.80;48.16;100579.31;5140733;27;20187;-36
2022/11/09 11:40:15;;;;;;;;;;;;;;;20.79;48.33;100575.75;5154311;27;19977;-37
2022/11/09 11:43:01;;;;;;;;;;;;;;;20.79;48.95;100575.75;5157382;27;20399;-37
2022/11/09 11:45:31;;;;;;;;;;;;;;;20.82;48.47;100579.03;5134042;27;19978;-38
2022/11/09 11:50:45;;;;;;;;;;;;;;;20.76;47.98;100581.88;5171354;27;19929;-36
2022/11/09 11:53:31;;;;;;;;;;;;;;;20.81;48.05;100572.66;5136591;27;19963;-38
2022/11/09 11:56:01;;;;;;;;;;;;;;;20.83;47.98;100584.28;5135253;27;20658;-39
2022/11/09 11:58:32;;;;;;;;;;;;;;;20.83;48.83;100577.91;5153636;27;20022;-39
2022/11/09 12:01:18;;;;;;;;;;;;;;;20.84;48.23;100590.63;5158017;27;20026;-39
2022/11/09 12:04:03;;;;;;;;;;;;;;;20.82;47.75;100590.13;5140660;27;19927;-40
2022/11/09 12:06:48;;;;;;;;;;;;;;;20.86;48.01;100588.41;5133962;27;19973;-39
2022/11/09 12:09:18;;;;;;;;;;;;;;;20.82;48.03;100596.47;5130630;27;19930;-39
2022/11/09 12:12:03;;;;;;;;;;;;;;;20.85;47.90;100584.78;5150434;27;20385;-42
2022/11/09 12:14:49;;;;;;;;;;;;;;;20.83;47.32;100592.56;5134457;27;20042;-40
2022/11/09 12:17:19;;;;;;;;;;;;;;;20.85;47.67;100587.53;5133458;27;19962;-39
2022/11/09 12:19:51;;;;;;;;;;;;;;;20.85;47.61;100593.06;5151227;27;19958;-39
2022/11/09 12:22:22;;;;;;;;;;;;;;;20.87;47.48;100587.25;5151502;27;19961;-40
2022/11/09 12:25:07;;;;;;;;;;;;;;;20.87;47.44;100590.84;5149471;27;19931;-40
2022/11/09 12:27:40;;;;;;;;;;;;;;;20.86;48.18;100600.28;5137581;27;19941;-39
2022/11/09 12:30:22;;;;;;;;;;;;;;;20.87;47.82;100593.63;5148535;27;20067;-39
2022/11/09 12:33:08;;;;;;;;;;;;;;;20.89;47.91;100593.31;5124231;27;20018;-39
2022/11/09 12:35:35;;;;;;;;;;;;;;;20.87;48.09;100581.72;5125508;27;20046;-40
2022/11/09 12:38:09;;;;;;;;;;;;;;;20.88;47.52;100589.72;5125862;27;20017;-39
2022/11/09 12:40:36;;;;;;;;;;;;;;;20.88;47.31;100594.44;5130728;27;19984;-39
2022/11/09 12:43:04;;;;;;;;;;;;;;;20.87;47.50;100601.94;5141612;27;20485;-39
2022/11/09 12:45:31;;;;;;;;;;;;;;;20.88;47.52;100598.03;5148779;27;20033;-39
2022/11/09 12:47:58;;;;;;;;;;;;;;;20.87;47.13;100599.16;5156436;27;19923;-39
2022/11/09 12:50:25;;;;;;;;;;;;;;;20.89;47.06;100607.16;5150929;27;19971;-39
2022/11/09 12:52:51;;;;;;;;;;;;;;;20.87;47.26;100596.38;5149178;27;19966;-39
2022/11/09 12:55:18;;;;;;;;;;;;;;;20.88;47.06;100609.09;5154497;27;19957;-39
2022/11/09 12:57:45;;;;;;;;;;;;;;;20.87;47.24;100604.69;5152249;27;19966;-39
2022/11/09 13:00:30;;;;;;;;;;;;;;;20.87;47.25;100604.69;5134362;27;20014;-39